sensor_id;sensor_type;location;lat;lon;timestamp;pressure;altitude;pressure_sealevel;temperature;humidity
61710;BME280;47633;51.494;5.386;2023-04-30T00:01:45;102241.16;;;19.01;43.01
61710;BME280;47633;51.494;5.386;2023-04-30T00:04:11;102246.53;;;18.99;43.00
61710;BME280;47633;51.494;5.386;2023-04-30T00:06:36;102231.72;;;18.97;43.02
61710;BME280;47633;51.494;5.386;2023-04-30T00:09:01;102240.47;;;18.97;42.97
61710;BME280;47633;51.494;5.386;2023-04-30T00:11:27;102244.00;;;18.98;43.01
61710;BME280;47633;51.494;5.386;2023-04-30T00:13:53;102238.72;;;18.98;43.03
61710;BME280;47633;51.494;5.386;2023-04-30T00:16:18;102237.09;;;18.95;42.96
61710;BME280;47633;51.494;5.386;2023-04-30T00:18:43;102244.94;;;18.97;42.65
61710;BME280;47633;51.494;5.386;2023-04-30T00:21:09;102244.19;;;18.95;43.02
61710;BME280;47633;51.494;5.386;2023-04-30T00:23:34;102243.41;;;18.93;42.97
61710;BME280;47633;51.494;5.386;2023-04-30T00:26:00;102243.41;;;18.93;42.93
61710;BME280;47633;51.494;5.386;2023-04-30T00:28:25;102257.38;;;18.95;42.93
61710;BME280;47633;51.494;5.386;2023-04-30T00:30:51;102254.84;;;18.93;42.58
61710;BME280;47633;51.494;5.386;2023-04-30T00:33:16;102249.56;;;18.93;42.98
61710;BME280;47633;51.494;5.386;2023-04-30T00:35:41;102247.94;;;18.91;42.61
61710;BME280;47633;51.494;5.386;2023-04-30T00:38:07;102240.94;;;18.90;43.07
61710;BME280;47633;51.494;5.386;2023-04-30T00:40:36;102240.31;;;18.86;42.90
61710;BME280;47633;51.494;5.386;2023-04-30T00:43:02;102245.22;;;18.92;42.90
61710;BME280;47633;51.494;5.386;2023-04-30T00:45:28;102253.13;;;18.92;42.85
61710;BME280;47633;51.494;5.386;2023-04-30T00:47:53;102243.69;;;18.88;42.79
61710;BME280;47633;51.494;5.386;2023-04-30T00:50:18;102255.22;;;18.87;42.88
61710;BME280;47633;51.494;5.386;2023-04-30T00:52:44;102249.94;;;18.87;42.84
61710;BME280;47633;51.494;5.386;2023-04-30T00:55:12;102249.94;;;18.87;42.76
61710;BME280;47633;51.494;5.386;2023-04-30T00:57:38;102244.66;;;18.87;42.82
61710;BME280;47633;51.494;5.386;2023-04-30T01:00:05;102242.84;;;18.88;42.74
61710;BME280;47633;51.494;5.386;2023-04-30T01:02:35;102241.34;;;18.83;42.77
61710;BME280;47633;51.494;5.386;2023-04-30T01:05:01;102250.03;;;18.85;42.80
61710;BME280;47633;51.494;5.386;2023-04-30T01:07:28;102242.94;;;18.86;42.69
61710;BME280;47633;51.494;5.386;2023-04-30T01:09:53;102243.78;;;18.87;42.69
61710;BME280;47633;51.494;5.386;2023-04-30T01:12:38;102241.28;;;18.85;42.64
61710;BME280;47633;51.494;5.386;2023-04-30T01:15:41;102229.84;;;18.84;42.61
61710;BME280;47633;51.494;5.386;2023-04-30T01:18:22;102235.13;;;18.84;42.82
61710;BME280;47633;51.494;5.386;2023-04-30T01:20:53;102230.00;;;18.81;42.49
61710;BME280;47633;51.494;5.386;2023-04-30T01:26:10;102237.91;;;18.81;42.64
61710;BME280;47633;51.494;5.386;2023-04-30T01:28:39;102240.56;;;18.81;42.56
61710;BME280;47633;51.494;5.386;2023-04-30T01:31:12;102239.72;;;18.81;42.53
61710;BME280;47633;51.494;5.386;2023-04-30T01:33:37;102236.97;;;18.82;42.56
61710;BME280;47633;51.494;5.386;2023-04-30T01:36:29;102238.00;;;18.80;42.65
61710;BME280;47633;51.494;5.386;2023-04-30T01:39:05;102238.00;;;18.80;42.35
61710;BME280;47633;51.494;5.386;2023-04-30T01:47:45;102239.06;;;18.77;42.58
61710;BME280;47633;51.494;5.386;2023-04-30T01:52:53;102240.00;;;18.76;42.53
61710;BME280;47633;51.494;5.386;2023-04-30T01:55:37;102246.22;;;18.75;42.43
61710;BME280;47633;51.494;5.386;2023-04-30T01:58:09;102239.16;;;18.76;42.39
61710;BME280;47633;51.494;5.386;2023-04-30T02:00:36;102242.75;;;18.75;42.41
61710;BME280;47633;51.494;5.386;2023-04-30T02:03:01;102236.72;;;18.73;42.14
61710;BME280;47633;51.494;5.386;2023-04-30T02:05:27;102242.09;;;18.71;42.45
61710;BME280;47633;51.494;5.386;2023-04-30T02:07:52;102245.47;;;18.73;42.42
61710;BME280;47633;51.494;5.386;2023-04-30T02:10:21;102244.72;;;18.71;42.34
61710;BME280;47633;51.494;5.386;2023-04-30T02:12:47;102249.03;;;18.72;42.51
61710;BME280;47633;51.494;5.386;2023-04-30T02:15:12;102250.00;;;18.71;42.40
61710;BME280;47633;51.494;5.386;2023-04-30T02:17:38;102246.50;;;18.71;42.57
61710;BME280;47633;51.494;5.386;2023-04-30T02:20:04;102255.28;;;18.71;42.44
61710;BME280;47633;51.494;5.386;2023-04-30T02:22:29;102245.75;;;18.68;41.90
61710;BME280;47633;51.494;5.386;2023-04-30T02:24:54;102255.38;;;18.70;42.29
61710;BME280;47633;51.494;5.386;2023-04-30T02:27:22;102252.00;;;18.67;42.39
61710;BME280;47633;51.494;5.386;2023-04-30T02:29:48;102249.44;;;18.66;42.31
61710;BME280;47633;51.494;5.386;2023-04-30T02:32:13;102254.63;;;18.67;42.26
61710;BME280;47633;51.494;5.386;2023-04-30T02:34:39;102257.38;;;18.66;42.20
61710;BME280;47633;51.494;5.386;2023-04-30T02:37:05;102250.28;;;18.66;42.31
61710;BME280;47633;51.494;5.386;2023-04-30T02:39:30;102247.75;;;18.65;42.19
61710;BME280;47633;51.494;5.386;2023-04-30T02:41:55;102250.38;;;18.65;42.52
61710;BME280;47633;51.494;5.386;2023-04-30T02:44:20;102249.44;;;18.66;42.38
61710;BME280;47633;51.494;5.386;2023-04-30T02:46:46;102243.50;;;18.62;42.22
61710;BME280;47633;51.494;5.386;2023-04-30T02:49:11;102252.19;;;18.64;42.14
61710;BME280;47633;51.494;5.386;2023-04-30T02:51:36;102245.28;;;18.62;42.39
61710;BME280;47633;51.494;5.386;2023-04-30T02:54:01;102238.22;;;18.62;42.12
61710;BME280;47633;51.494;5.386;2023-04-30T02:56:27;102242.66;;;18.62;42.15
61710;BME280;47633;51.494;5.386;2023-04-30T02:58:52;102250.56;;;18.62;42.04
61710;BME280;47633;51.494;5.386;2023-04-30T03:01:18;102244.44;;;18.61;42.18
61710;BME280;47633;51.494;5.386;2023-04-30T03:03:43;102241.91;;;18.60;42.36
61710;BME280;47633;51.494;5.386;2023-04-30T03:06:08;102242.66;;;18.62;42.16
61710;BME280;47633;51.494;5.386;2023-04-30T03:08:33;102240.84;;;18.62;42.36
61710;BME280;47633;51.494;5.386;2023-04-30T03:10:59;102235.56;;;18.62;42.32
61710;BME280;47633;51.494;5.386;2023-04-30T03:13:24;102234.63;;;18.63;42.22
61710;BME280;47633;51.494;5.386;2023-04-30T03:15:58;102230.38;;;18.61;42.27
61710;BME280;47633;51.494;5.386;2023-04-30T03:18:25;102227.72;;;18.61;42.20
61710;BME280;47633;51.494;5.386;2023-04-30T03:20:50;102230.38;;;18.61;42.18
61710;BME280;47633;51.494;5.386;2023-04-30T03:23:15;102228.50;;;18.63;42.07
61710;BME280;47633;51.494;5.386;2023-04-30T03:25:41;102235.66;;;18.61;42.11
61710;BME280;47633;51.494;5.386;2023-04-30T03:28:06;102233.88;;;18.61;42.08
61710;BME280;47633;51.494;5.386;2023-04-30T03:30:31;102228.78;;;18.58;41.95
61710;BME280;47633;51.494;5.386;2023-04-30T03:32:57;102231.25;;;18.61;42.01
61710;BME280;47633;51.494;5.386;2023-04-30T03:35:22;102224.44;;;18.57;42.05
61710;BME280;47633;51.494;5.386;2023-04-30T03:37:47;102223.69;;;18.55;41.74
61710;BME280;47633;51.494;5.386;2023-04-30T03:40:12;102234.06;;;18.58;41.74
61710;BME280;47633;51.494;5.386;2023-04-30T03:42:38;102231.53;;;18.57;41.56
61710;BME280;47633;51.494;5.386;2023-04-30T03:45:03;102229.81;;;18.56;41.98
61710;BME280;47633;51.494;5.386;2023-04-30T03:47:29;102236.91;;;18.55;41.95
61710;BME280;47633;51.494;5.386;2023-04-30T03:49:54;102232.56;;;18.54;41.79
61710;BME280;47633;51.494;5.386;2023-04-30T03:52:20;102236.03;;;18.55;41.79
61710;BME280;47633;51.494;5.386;2023-04-30T03:54:46;102234.34;;;18.54;42.03
61710;BME280;47633;51.494;5.386;2023-04-30T03:57:11;102237.91;;;18.53;41.87
61710;BME280;47633;51.494;5.386;2023-04-30T03:59:38;102237.00;;;18.54;41.78
61710;BME280;47633;51.494;5.386;2023-04-30T04:02:04;102252.84;;;18.54;42.06
61710;BME280;47633;51.494;5.386;2023-04-30T04:04:30;102252.19;;;18.50;41.80
61710;BME280;47633;51.494;5.386;2023-04-30T04:06:56;102254.69;;;18.52;41.89
61710;BME280;47633;51.494;5.386;2023-04-30T04:09:21;102255.66;;;18.51;42.03
61710;BME280;47633;51.494;5.386;2023-04-30T04:11:46;102251.31;;;18.49;41.92
61710;BME280;47633;51.494;5.386;2023-04-30T04:14:12;102259.31;;;18.48;41.94
61710;BME280;47633;51.494;5.386;2023-04-30T04:16:37;102255.75;;;18.49;41.65
61710;BME280;47633;51.494;5.386;2023-04-30T04:19:03;102259.22;;;18.49;41.91
61710;BME280;47633;51.494;5.386;2023-04-30T04:21:28;102255.75;;;18.49;41.75
61710;BME280;47633;51.494;5.386;2023-04-30T04:23:53;102263.66;;;18.49;41.73
61710;BME280;47633;51.494;5.386;2023-04-30T04:26:19;102260.28;;;18.47;41.65
61710;BME280;47633;51.494;5.386;2023-04-30T04:28:45;102260.47;;;18.44;41.63
61710;BME280;47633;51.494;5.386;2023-04-30T04:31:12;102257.72;;;18.45;41.82
61710;BME280;47633;51.494;5.386;2023-04-30T04:33:37;102258.66;;;18.44;41.69
61710;BME280;47633;51.494;5.386;2023-04-30T04:36:02;102260.38;;;18.45;41.68
61710;BME280;47633;51.494;5.386;2023-04-30T04:38:28;102257.72;;;18.45;41.76
61710;BME280;47633;51.494;5.386;2023-04-30T04:40:54;102257.81;;;18.44;41.81
61710;BME280;47633;51.494;5.386;2023-04-30T04:43:20;102269.13;;;18.46;41.82
61710;BME280;47633;51.494;5.386;2023-04-30T04:45:46;102266.59;;;18.44;42.04
61710;BME280;47633;51.494;5.386;2023-04-30T04:48:14;102270.94;;;18.45;42.04
61710;BME280;47633;51.494;5.386;2023-04-30T04:50:40;102276.13;;;18.47;41.93
61710;BME280;47633;51.494;5.386;2023-04-30T04:53:05;102277.78;;;18.48;41.79
61710;BME280;47633;51.494;5.386;2023-04-30T04:55:30;102276.97;;;18.47;41.87
61710;BME280;47633;51.494;5.386;2023-04-30T04:57:56;102265.94;;;18.41;41.82
61710;BME280;47633;51.494;5.386;2023-04-30T05:00:21;102280.63;;;18.45;41.95
61710;BME280;47633;51.494;5.386;2023-04-30T05:02:47;102274.41;;;18.46;41.90
61710;BME280;47633;51.494;5.386;2023-04-30T05:05:12;102264.88;;;18.43;41.81
61710;BME280;47633;51.494;5.386;2023-04-30T05:07:37;102265.75;;;18.44;41.92
61710;BME280;47633;51.494;5.386;2023-04-30T05:10:03;102271.03;;;18.44;41.85
61710;BME280;47633;51.494;5.386;2023-04-30T05:12:28;102267.69;;;18.40;42.04
61710;BME280;47633;51.494;5.386;2023-04-30T05:14:53;102269.50;;;18.40;42.46
61710;BME280;47633;51.494;5.386;2023-04-30T05:17:18;102272.88;;;18.42;42.23
61710;BME280;47633;51.494;5.386;2023-04-30T05:19:44;102268.47;;;18.42;42.31
61710;BME280;47633;51.494;5.386;2023-04-30T05:22:11;102266.50;;;18.46;42.30
61710;BME280;47633;51.494;5.386;2023-04-30T05:24:37;102269.03;;;18.47;42.31
61710;BME280;47633;51.494;5.386;2023-04-30T05:27:02;102266.97;;;18.53;42.28
61710;BME280;47633;51.494;5.386;2023-04-30T05:29:29;102262.44;;;18.55;42.25
61710;BME280;47633;51.494;5.386;2023-04-30T05:31:54;102264.59;;;18.62;42.13
61710;BME280;47633;51.494;5.386;2023-04-30T05:34:19;102257.56;;;18.63;42.08
61710;BME280;47633;51.494;5.386;2023-04-30T05:36:45;102265.28;;;18.66;42.06
61710;BME280;47633;51.494;5.386;2023-04-30T05:39:10;102267.63;;;18.71;42.05
61710;BME280;47633;51.494;5.386;2023-04-30T05:41:35;102267.44;;;18.74;41.94
61710;BME280;47633;51.494;5.386;2023-04-30T05:44:01;102269.06;;;18.76;41.96
61710;BME280;47633;51.494;5.386;2023-04-30T05:46:29;102278.41;;;18.82;41.98
61710;BME280;47633;51.494;5.386;2023-04-30T05:48:54;102265.09;;;18.83;42.09
61710;BME280;47633;51.494;5.386;2023-04-30T05:51:19;102270.31;;;18.85;42.01
61710;BME280;47633;51.494;5.386;2023-04-30T05:53:45;102278.91;;;18.89;41.89
61710;BME280;47633;51.494;5.386;2023-04-30T05:56:10;102277.00;;;18.91;41.86
61710;BME280;47633;51.494;5.386;2023-04-30T05:58:36;102277.84;;;18.91;41.88
61710;BME280;47633;51.494;5.386;2023-04-30T06:01:02;102274.19;;;18.94;42.02
61710;BME280;47633;51.494;5.386;2023-04-30T06:03:27;102276.63;;;18.97;41.93
61710;BME280;47633;51.494;5.386;2023-04-30T06:05:53;102271.34;;;18.97;41.72
61710;BME280;47633;51.494;5.386;2023-04-30T06:08:18;102281.72;;;19.00;41.98
61710;BME280;47633;51.494;5.386;2023-04-30T06:10:43;102270.31;;;18.99;41.72
61710;BME280;47633;51.494;5.386;2023-04-30T06:13:09;102261.53;;;18.99;41.72
61710;BME280;47633;51.494;5.386;2023-04-30T06:15:34;102269.16;;;19.03;41.77
61710;BME280;47633;51.494;5.386;2023-04-30T06:18:00;102269.25;;;19.02;41.63
61710;BME280;47633;51.494;5.386;2023-04-30T06:20:25;102273.59;;;19.03;41.56
61710;BME280;47633;51.494;5.386;2023-04-30T06:22:51;102270.88;;;19.05;41.74
61710;BME280;47633;51.494;5.386;2023-04-30T06:25:17;102263.03;;;19.03;41.85
61710;BME280;47633;51.494;5.386;2023-04-30T06:27:42;102258.59;;;19.03;41.75
61710;BME280;47633;51.494;5.386;2023-04-30T06:30:08;102259.44;;;19.04;41.64
61710;BME280;47633;51.494;5.386;2023-04-30T06:32:33;102268.13;;;19.06;41.63
61710;BME280;47633;51.494;5.386;2023-04-30T06:34:59;102272.44;;;19.07;41.70
61710;BME280;47633;51.494;5.386;2023-04-30T06:37:24;102268.03;;;19.08;41.70
61710;BME280;47633;51.494;5.386;2023-04-30T06:39:49;102264.53;;;19.07;41.72
61710;BME280;47633;51.494;5.386;2023-04-30T06:42:15;102268.03;;;19.08;41.72
61710;BME280;47633;51.494;5.386;2023-04-30T06:44:41;102268.78;;;19.10;41.37
61710;BME280;47633;51.494;5.386;2023-04-30T06:47:06;102269.72;;;19.09;41.55
61710;BME280;47633;51.494;5.386;2023-04-30T06:49:31;102262.75;;;19.08;41.86
61710;BME280;47633;51.494;5.386;2023-04-30T06:51:56;102267.84;;;19.11;41.93
61710;BME280;47633;51.494;5.386;2023-04-30T06:54:23;102272.25;;;19.10;42.33
61710;BME280;47633;51.494;5.386;2023-04-30T06:56:50;102273.97;;;19.11;42.63
61710;BME280;47633;51.494;5.386;2023-04-30T06:59:16;102272.16;;;19.12;42.47
61710;BME280;47633;51.494;5.386;2023-04-30T07:01:41;102271.97;;;19.15;42.74
61710;BME280;47633;51.494;5.386;2023-04-30T07:04:07;102277.16;;;19.16;42.86
61710;BME280;47633;51.494;5.386;2023-04-30T07:06:32;102277.06;;;19.18;43.14
61710;BME280;47633;51.494;5.386;2023-04-30T07:08:58;102274.31;;;19.19;42.96
61710;BME280;47633;51.494;5.386;2023-04-30T07:11:23;102277.81;;;19.20;43.14
61710;BME280;47633;51.494;5.386;2023-04-30T07:13:48;102276.78;;;19.23;43.17
61710;BME280;47633;51.494;5.386;2023-04-30T07:16:13;102270.66;;;19.22;43.33
61710;BME280;47633;51.494;5.386;2023-04-30T07:18:41;102280.16;;;19.25;43.63
61710;BME280;47633;51.494;5.386;2023-04-30T07:21:06;102274.03;;;19.24;43.68
61710;BME280;47633;51.494;5.386;2023-04-30T07:23:32;102279.97;;;19.28;43.91
61710;BME280;47633;51.494;5.386;2023-04-30T07:25:58;102269.41;;;19.28;43.67
61710;BME280;47633;51.494;5.386;2023-04-30T07:28:23;102267.88;;;19.38;43.47
61710;BME280;47633;51.494;5.386;2023-04-30T07:30:48;102272.09;;;19.40;43.39
61710;BME280;47633;51.494;5.386;2023-04-30T07:33:13;102261.22;;;19.45;43.37
61710;BME280;47633;51.494;5.386;2023-04-30T07:35:39;102264.44;;;19.50;43.42
61710;BME280;47633;51.494;5.386;2023-04-30T07:38:04;102256.53;;;19.50;43.73
61710;BME280;47633;51.494;5.386;2023-04-30T07:40:30;102260.75;;;19.53;44.17
61710;BME280;47633;51.494;5.386;2023-04-30T07:42:55;102265.84;;;19.56;44.67
61710;BME280;47633;51.494;5.386;2023-04-30T07:45:20;102261.28;;;19.58;45.23
61710;BME280;47633;51.494;5.386;2023-04-30T07:47:46;102268.06;;;19.62;45.21
61710;BME280;47633;51.494;5.386;2023-04-30T07:50:11;102260.78;;;19.66;45.50
61710;BME280;47633;51.494;5.386;2023-04-30T07:52:39;102256.25;;;19.68;45.40
61710;BME280;47633;51.494;5.386;2023-04-30T07:55:04;102260.59;;;19.69;45.71
61710;BME280;47633;51.494;5.386;2023-04-30T07:57:29;102262.28;;;19.70;46.00
61710;BME280;47633;51.494;5.386;2023-04-30T07:59:55;102261.56;;;19.68;45.78
61710;BME280;47633;51.494;5.386;2023-04-30T08:02:21;102254.34;;;19.70;45.87
61710;BME280;47633;51.494;5.386;2023-04-30T08:04:46;102255.28;;;19.69;45.89
61710;BME280;47633;51.494;5.386;2023-04-30T08:07:12;102255.19;;;19.70;45.61
61710;BME280;47633;51.494;5.386;2023-04-30T08:09:39;102267.88;;;19.65;46.07
61710;BME280;47633;51.494;5.386;2023-04-30T08:12:05;102266.06;;;19.66;46.23
61710;BME280;47633;51.494;5.386;2023-04-30T08:14:31;102259.84;;;19.67;45.93
61710;BME280;47633;51.494;5.386;2023-04-30T08:16:56;102261.56;;;19.68;46.16
61710;BME280;47633;51.494;5.386;2023-04-30T08:19:23;102258.81;;;19.69;45.77
61710;BME280;47633;51.494;5.386;2023-04-30T08:21:49;102262.28;;;19.70;45.90
61710;BME280;47633;51.494;5.386;2023-04-30T08:24:14;102262.41;;;19.68;45.99
61710;BME280;47633;51.494;5.386;2023-04-30T08:26:39;102261.44;;;19.69;46.01
61710;BME280;47633;51.494;5.386;2023-04-30T08:29:06;102261.75;;;19.65;45.74
61710;BME280;47633;51.494;5.386;2023-04-30T08:31:32;102259.09;;;19.65;46.32
61710;BME280;47633;51.494;5.386;2023-04-30T08:33:58;102266.94;;;19.66;46.16
61710;BME280;47633;51.494;5.386;2023-04-30T08:36:23;102261.09;;;19.61;46.10
61710;BME280;47633;51.494;5.386;2023-04-30T08:38:48;102259.50;;;19.58;46.23
61710;BME280;47633;51.494;5.386;2023-04-30T08:41:14;102253.53;;;19.55;46.19
61710;BME280;47633;51.494;5.386;2023-04-30T08:43:42;102258.94;;;19.53;46.35
61710;BME280;47633;51.494;5.386;2023-04-30T08:46:10;102254.91;;;19.48;46.46
61710;BME280;47633;51.494;5.386;2023-04-30T08:48:37;102255.94;;;19.45;46.26
61710;BME280;47633;51.494;5.386;2023-04-30T08:51:03;102255.75;;;19.48;46.17
61710;BME280;47633;51.494;5.386;2023-04-30T08:53:29;102252.06;;;19.51;46.12
61710;BME280;47633;51.494;5.386;2023-04-30T08:55:55;102255.75;;;19.48;46.11
61710;BME280;47633;51.494;5.386;2023-04-30T08:58:21;102246.88;;;19.49;45.94
61710;BME280;47633;51.494;5.386;2023-04-30T09:00:47;102245.16;;;19.48;46.10
61710;BME280;47633;51.494;5.386;2023-04-30T09:03:12;102250.34;;;19.50;45.86
61710;BME280;47633;51.494;5.386;2023-04-30T09:05:39;102247.81;;;19.48;46.05
61710;BME280;47633;51.494;5.386;2023-04-30T09:08:06;102253.09;;;19.48;45.75
61710;BME280;47633;51.494;5.386;2023-04-30T09:10:32;102250.75;;;19.44;45.80
61710;BME280;47633;51.494;5.386;2023-04-30T09:13:03;102244.72;;;19.42;46.04
61710;BME280;47633;51.494;5.386;2023-04-30T09:15:30;102244.34;;;19.48;46.14
61710;BME280;47633;51.494;5.386;2023-04-30T09:18:16;102243.94;;;19.54;45.70
61710;BME280;47633;51.494;5.386;2023-04-30T09:20:56;102248.63;;;19.63;45.77
61710;BME280;47633;51.494;5.386;2023-04-30T09:23:23;102248.22;;;19.69;45.25
61710;BME280;47633;51.494;5.386;2023-04-30T09:25:48;102246.31;;;19.71;45.08
61710;BME280;47633;51.494;5.386;2023-04-30T09:28:13;102241.97;;;19.70;45.12
61710;BME280;47633;51.494;5.386;2023-04-30T09:30:40;102246.53;;;19.68;45.17
61710;BME280;47633;51.494;5.386;2023-04-30T09:33:06;102241.22;;;19.68;44.97
61710;BME280;47633;51.494;5.386;2023-04-30T09:35:33;102244.91;;;19.66;44.97
61710;BME280;47633;51.494;5.386;2023-04-30T09:38:00;102249.47;;;19.64;45.02
61710;BME280;47633;51.494;5.386;2023-04-30T09:40:40;102243.75;;;19.57;45.14
61710;BME280;47633;51.494;5.386;2023-04-30T09:43:06;102243.84;;;19.55;45.14
61710;BME280;47633;51.494;5.386;2023-04-30T09:45:46;102241.41;;;19.52;45.12
61710;BME280;47633;51.494;5.386;2023-04-30T09:48:14;102243.19;;;19.52;45.10
61710;BME280;47633;51.494;5.386;2023-04-30T09:50:40;102244.03;;;19.52;45.10
61710;BME280;47633;51.494;5.386;2023-04-30T09:53:06;102232.81;;;19.49;45.17
61710;BME280;47633;51.494;5.386;2023-04-30T09:55:34;102239.88;;;19.48;45.09
61710;BME280;47633;51.494;5.386;2023-04-30T09:58:03;102245.16;;;19.48;45.05
61710;BME280;47633;51.494;5.386;2023-04-30T10:00:29;102238.22;;;19.47;45.00
61710;BME280;47633;51.494;5.386;2023-04-30T10:02:57;102231.41;;;19.43;45.16
61710;BME280;47633;51.494;5.386;2023-04-30T10:05:23;102236.59;;;19.45;44.93
61710;BME280;47633;51.494;5.386;2023-04-30T10:07:49;102232.25;;;19.44;45.15
61710;BME280;47633;51.494;5.386;2023-04-30T10:10:15;102229.69;;;19.42;44.96
61710;BME280;47633;51.494;5.386;2023-04-30T10:12:49;102239.34;;;19.43;45.22
61710;BME280;47633;51.494;5.386;2023-04-30T10:15:19;102227.94;;;19.43;45.05
61710;BME280;47633;51.494;5.386;2023-04-30T10:17:55;102228.03;;;19.41;45.12
61710;BME280;47633;51.494;5.386;2023-04-30T10:20:22;102224.41;;;19.42;45.26
61710;BME280;47633;51.494;5.386;2023-04-30T10:22:50;102218.69;;;19.35;45.32
61710;BME280;47633;51.494;5.386;2023-04-30T10:25:16;102215.84;;;19.38;45.51
61710;BME280;47633;51.494;5.386;2023-04-30T10:27:42;102215.00;;;19.38;45.39
61710;BME280;47633;51.494;5.386;2023-04-30T10:30:09;102208.22;;;19.34;45.48
61710;BME280;47633;51.494;5.386;2023-04-30T10:32:43;102216.53;;;19.28;45.55
61710;BME280;47633;51.494;5.386;2023-04-30T10:35:20;102217.00;;;19.34;45.23
61710;BME280;47633;51.494;5.386;2023-04-30T10:37:56;102208.00;;;19.37;45.27
61710;BME280;47633;51.494;5.386;2023-04-30T10:40:27;102203.47;;;19.39;45.32
61710;BME280;47633;51.494;5.386;2023-04-30T10:42:53;102194.59;;;19.40;45.40
61710;BME280;47633;51.494;5.386;2023-04-30T10:45:33;102200.53;;;19.44;45.46
61710;BME280;47633;51.494;5.386;2023-04-30T10:48:04;102194.19;;;19.46;45.47
61710;BME280;47633;51.494;5.386;2023-04-30T10:50:30;102198.13;;;19.53;45.35
61710;BME280;47633;51.494;5.386;2023-04-30T10:53:02;102197.72;;;19.60;45.41
61710;BME280;47633;51.494;5.386;2023-04-30T10:55:28;102184.19;;;19.64;45.71
61710;BME280;47633;51.494;5.386;2023-04-30T10:57:54;102180.72;;;19.64;46.05
61710;BME280;47633;51.494;5.386;2023-04-30T11:00:27;102185.78;;;19.67;46.16
61710;BME280;47633;51.494;5.386;2023-04-30T11:02:57;102181.34;;;19.67;46.37
61710;BME280;47633;51.494;5.386;2023-04-30T11:05:37;102176.06;;;19.67;46.13
61710;BME280;47633;51.494;5.386;2023-04-30T11:08:03;102172.47;;;19.68;46.22
61710;BME280;47633;51.494;5.386;2023-04-30T11:10:33;102173.50;;;19.66;46.38
61710;BME280;47633;51.494;5.386;2023-04-30T11:13:05;102166.75;;;19.62;46.31
61710;BME280;47633;51.494;5.386;2023-04-30T11:15:39;102164.00;;;19.63;46.15
61710;BME280;47633;51.494;5.386;2023-04-30T11:18:06;102163.13;;;19.63;46.27
61710;BME280;47633;51.494;5.386;2023-04-30T11:20:32;102155.41;;;19.60;46.15
61710;BME280;47633;51.494;5.386;2023-04-30T11:23:14;102157.31;;;19.57;46.45
61710;BME280;47633;51.494;5.386;2023-04-30T11:25:41;102153.84;;;19.57;46.54
61710;BME280;47633;51.494;5.386;2023-04-30T11:28:22;102143.34;;;19.55;46.52
61710;BME280;47633;51.494;5.386;2023-04-30T11:30:57;102140.59;;;19.57;46.54
61710;BME280;47633;51.494;5.386;2023-04-30T11:33:25;102130.13;;;19.55;46.86
61710;BME280;47633;51.494;5.386;2023-04-30T11:35:51;102134.44;;;19.56;47.07
61710;BME280;47633;51.494;5.386;2023-04-30T11:38:23;102130.03;;;19.57;47.05
61710;BME280;47633;51.494;5.386;2023-04-30T11:40:50;102132.56;;;19.58;46.89
61710;BME280;47633;51.494;5.386;2023-04-30T11:43:29;102130.88;;;19.57;47.55
61710;BME280;47633;51.494;5.386;2023-04-30T11:48:34;102124.63;;;19.58;47.59
61710;BME280;47633;51.494;5.386;2023-04-30T11:51:20;102123.97;;;19.55;47.43
61710;BME280;47633;51.494;5.386;2023-04-30T11:53:48;102122.72;;;19.61;47.30
61710;BME280;47633;51.494;5.386;2023-04-30T11:56:20;102125.47;;;19.59;47.53
61710;BME280;47633;51.494;5.386;2023-04-30T11:58:46;102116.59;;;19.60;47.63
61710;BME280;47633;51.494;5.386;2023-04-30T12:01:12;102112.34;;;19.57;47.24
61710;BME280;47633;51.494;5.386;2023-04-30T12:03:43;102115.63;;;19.61;47.06
61710;BME280;47633;51.494;5.386;2023-04-30T12:06:11;102107.69;;;19.61;47.09
61710;BME280;47633;51.494;5.386;2023-04-30T12:08:45;102096.59;;;19.56;47.08
61710;BME280;47633;51.494;5.386;2023-04-30T12:11:21;102107.81;;;19.60;47.03
61710;BME280;47633;51.494;5.386;2023-04-30T12:14:03;102103.38;;;19.60;46.61
61710;BME280;47633;51.494;5.386;2023-04-30T12:16:44;102103.38;;;19.60;46.72
61710;BME280;47633;51.494;5.386;2023-04-30T12:19:12;102097.03;;;19.63;46.50
61710;BME280;47633;51.494;5.386;2023-04-30T12:21:38;102092.69;;;19.62;46.46
61710;BME280;47633;51.494;5.386;2023-04-30T12:24:05;102094.59;;;19.60;46.27
61710;BME280;47633;51.494;5.386;2023-04-30T12:26:35;102097.78;;;19.65;46.49
61710;BME280;47633;51.494;5.386;2023-04-30T12:29:07;102099.66;;;19.63;46.32
61710;BME280;47633;51.494;5.386;2023-04-30T12:31:32;102093.44;;;19.64;46.40
61710;BME280;47633;51.494;5.386;2023-04-30T12:34:03;102082.03;;;19.63;46.53
61710;BME280;47633;51.494;5.386;2023-04-30T12:36:30;102088.03;;;19.65;46.27
61710;BME280;47633;51.494;5.386;2023-04-30T12:39:09;102077.34;;;19.67;46.26
61710;BME280;47633;51.494;5.386;2023-04-30T12:41:48;102073.78;;;19.68;46.27
61710;BME280;47633;51.494;5.386;2023-04-30T12:44:22;102070.06;;;19.70;46.49
61710;BME280;47633;51.494;5.386;2023-04-30T12:46:50;102065.59;;;19.71;46.17
61710;BME280;47633;51.494;5.386;2023-04-30T12:49:32;102061.19;;;19.71;46.06
61710;BME280;47633;51.494;5.386;2023-04-30T12:52:05;102059.47;;;19.70;46.31
61710;BME280;47633;51.494;5.386;2023-04-30T12:54:33;102062.97;;;19.71;46.38
61710;BME280;47633;51.494;5.386;2023-04-30T12:57:12;102065.59;;;19.71;46.07
61710;BME280;47633;51.494;5.386;2023-04-30T13:02:18;102066.38;;;19.73;45.80
61710;BME280;47633;51.494;5.386;2023-04-30T13:04:43;102066.38;;;19.73;46.17
61710;BME280;47633;51.494;5.386;2023-04-30T13:07:09;102047.84;;;19.73;45.85
61710;BME280;47633;51.494;5.386;2023-04-30T13:09:36;102047.75;;;19.74;46.15